<?xml version="1.0" encoding="UTF-8" standalone="no" ?>
<gpx xmlns="http://www.topografix.com/GPX/1/1" xmlns:xsi="http://www.w3.org/2001/XMLSchema-instance" xsi:schemaLocation="http://www.topografix.com/GPX/1/1 http://www.topografix.com/GPX/1/1/gpx.xsd" version="1.1" creator="VisuGPX - https://www.visugpx.com">
  <metadata>
    <name>Les Erges (Drôme)</name>
    <desc><![CDATA[Randonnée peu difficile à partir du Col de la Berche]]></desc>
  </metadata>
  <trk>
    <name><![CDATA[Le Karst du Vercors - PD-]]></name>
    <trkseg>
      <trkpt lat="44.95499" lon="5.45894">
        <ele>1291</ele>
        <time>2020-09-05T08:32:11.65Z</time>
      </trkpt>
      <trkpt lat="44.95493" lon="5.45907">
        <ele>1288</ele>
        <time>2020-09-05T08:32:26.40Z</time>
      </trkpt>
      <trkpt lat="44.95513" lon="5.45932">
        <ele>1284</ele>
        <time>2020-09-05T08:32:56.77Z</time>
      </trkpt>
      <trkpt lat="44.9554" lon="5.4594">
        <ele>1284</ele>
        <time>2020-09-05T08:33:34.85Z</time>
      </trkpt>
      <trkpt lat="44.95623" lon="5.46007">
        <ele>1297</ele>
        <time>2020-09-05T08:36:08.22Z</time>
      </trkpt>
      <trkpt lat="44.95653" lon="5.46005">
        <ele>1303</ele>
        <time>2020-09-05T08:37:00.07Z</time>
      </trkpt>
      <trkpt lat="44.95686" lon="5.45993">
        <ele>1308</ele>
        <time>2020-09-05T08:37:53.05Z</time>
      </trkpt>
      <trkpt lat="44.95732" lon="5.46054">
        <ele>1317</ele>
        <time>2020-09-05T08:39:30.83Z</time>
      </trkpt>
      <trkpt lat="44.95804" lon="5.46057">
        <ele>1327</ele>
        <time>2020-09-05T08:41:29.04Z</time>
      </trkpt>
      <trkpt lat="44.95833" lon="5.46087">
        <ele>1334</ele>
        <time>2020-09-05T08:42:37.38Z</time>
      </trkpt>
      <trkpt lat="44.95873" lon="5.46108">
        <ele>1343</ele>
        <time>2020-09-05T08:43:54.83Z</time>
      </trkpt>
      <trkpt lat="44.9592" lon="5.46113">
        <ele>1351</ele>
        <time>2020-09-05T08:45:12.06Z</time>
      </trkpt>
      <trkpt lat="44.95937" lon="5.46128">
        <ele>1354</ele>
        <time>2020-09-05T08:45:43.67Z</time>
      </trkpt>
      <trkpt lat="44.95941" lon="5.4616">
        <ele>1357</ele>
        <time>2020-09-05T08:46:13.12Z</time>
      </trkpt>
      <trkpt lat="44.95935" lon="5.46197">
        <ele>1358</ele>
        <time>2020-09-05T08:46:44.02Z</time>
      </trkpt>
      <trkpt lat="44.95942" lon="5.46229">
        <ele>1358</ele>
        <time>2020-09-05T08:47:11.02Z</time>
      </trkpt>
      <trkpt lat="44.95991" lon="5.46268">
        <ele>1356</ele>
        <time>2020-09-05T08:48:13.42Z</time>
      </trkpt>
      <trkpt lat="44.96024" lon="5.46263">
        <ele>1355</ele>
        <time>2020-09-05T08:48:50.49Z</time>
      </trkpt>
      <trkpt lat="44.96048" lon="5.46248">
        <ele>1354</ele>
        <time>2020-09-05T08:49:19.93Z</time>
      </trkpt>
      <trkpt lat="44.96074" lon="5.46194">
        <ele>1356</ele>
        <time>2020-09-05T08:50:18.84Z</time>
      </trkpt>
      <trkpt lat="44.96085" lon="5.46186">
        <ele>1358</ele>
        <time>2020-09-05T08:50:35.39Z</time>
      </trkpt>
      <trkpt lat="44.961" lon="5.4619">
        <ele>1360</ele>
        <time>2020-09-05T08:51:05.36Z</time>
      </trkpt>
      <trkpt lat="44.96116" lon="5.46185">
        <ele>1363</ele>
        <time>2020-09-05T08:51:37.78Z</time>
      </trkpt>
      <trkpt lat="44.96166" lon="5.46239">
        <ele>1379</ele>
        <time>2020-09-05T08:54:08.15Z</time>
      </trkpt>
      <trkpt lat="44.96204" lon="5.46312">
        <ele>1397</ele>
        <time>2020-09-05T08:56:51.36Z</time>
      </trkpt>
      <trkpt lat="44.96197" lon="5.46328">
        <ele>1401</ele>
        <time>2020-09-05T08:57:23.70Z</time>
      </trkpt>
      <trkpt lat="44.96187" lon="5.46336">
        <ele>1404</ele>
        <time>2020-09-05T08:57:51.73Z</time>
      </trkpt>
      <trkpt lat="44.96186" lon="5.46357">
        <ele>1408</ele>
        <time>2020-09-05T08:58:25.59Z</time>
      </trkpt>
      <trkpt lat="44.962" lon="5.46369">
        <ele>1412</ele>
        <time>2020-09-05T08:59:02.02Z</time>
      </trkpt>
      <trkpt lat="44.96187" lon="5.46406">
        <ele>1419</ele>
        <time>2020-09-05T08:59:47.35Z</time>
      </trkpt>
      <trkpt lat="44.96197" lon="5.46431">
        <ele>1423</ele>
        <time>2020-09-05T09:00:19.57Z</time>
      </trkpt>
      <trkpt lat="44.96181" lon="5.46567">
        <ele>1433</ele>
        <time>2020-09-05T09:02:18.94Z</time>
      </trkpt>
      <trkpt lat="44.96221" lon="5.46649">
        <ele>1432</ele>
        <time>2020-09-05T09:03:37.49Z</time>
      </trkpt>
      <trkpt lat="44.96216" lon="5.46729">
        <ele>1430</ele>
        <time>2020-09-05T09:04:40.63Z</time>
      </trkpt>
      <trkpt lat="44.96246" lon="5.46774">
        <ele>1431</ele>
        <time>2020-09-05T09:05:33.88Z</time>
      </trkpt>
      <trkpt lat="44.96258" lon="5.46828">
        <ele>1434</ele>
        <time>2020-09-05T09:06:24.73Z</time>
      </trkpt>
      <trkpt lat="44.9624" lon="5.46938">
        <ele>1440</ele>
        <time>2020-09-05T09:08:01.77Z</time>
      </trkpt>
      <trkpt lat="44.96298" lon="5.47003">
        <ele>1441</ele>
        <time>2020-09-05T09:09:23.73Z</time>
      </trkpt>
      <trkpt lat="44.96308" lon="5.47061">
        <ele>1436</ele>
        <time>2020-09-05T09:10:16.13Z</time>
      </trkpt>
      <trkpt lat="44.96335" lon="5.47064">
        <ele>1432</ele>
        <time>2020-09-05T09:10:51.46Z</time>
      </trkpt>
      <trkpt lat="44.96353" lon="5.47045">
        <ele>1429</ele>
        <time>2020-09-05T09:11:19.90Z</time>
      </trkpt>
      <trkpt lat="44.9638" lon="5.47046">
        <ele>1424</ele>
        <time>2020-09-05T09:11:51.99Z</time>
      </trkpt>
      <trkpt lat="44.96536" lon="5.47104">
        <ele>1407</ele>
        <time>2020-09-05T09:15:14.62Z</time>
      </trkpt>
      <trkpt lat="44.96589" lon="5.4719">
        <ele>1388</ele>
        <time>2020-09-05T09:18:04.98Z</time>
      </trkpt>
      <trkpt lat="44.96568" lon="5.47322">
        <ele>1349</ele>
        <time>2020-09-05T09:22:01.29Z</time>
      </trkpt>
      <trkpt lat="44.96559" lon="5.47436">
        <ele>1320</ele>
        <time>2020-09-05T09:24:54.54Z</time>
      </trkpt>
      <trkpt lat="44.96569" lon="5.47473">
        <ele>1313</ele>
        <time>2020-09-05T09:25:31.53Z</time>
      </trkpt>
      <trkpt lat="44.96609" lon="5.47509">
        <ele>1307</ele>
        <time>2020-09-05T09:26:27.09Z</time>
      </trkpt>
      <trkpt lat="44.96677" lon="5.47524">
        <ele>1303</ele>
        <time>2020-09-05T09:27:42.56Z</time>
      </trkpt>
      <trkpt lat="44.96822" lon="5.47516">
        <ele>1304</ele>
        <time>2020-09-05T09:30:25.52Z</time>
      </trkpt>
      <trkpt lat="44.96863" lon="5.47505">
        <ele>1304</ele>
        <time>2020-09-05T09:31:11.85Z</time>
      </trkpt>
      <trkpt lat="44.9699" lon="5.47505">
        <ele>1303</ele>
        <time>2020-09-05T09:33:33.03Z</time>
      </trkpt>
      <trkpt lat="44.97028" lon="5.47534">
        <ele>1303</ele>
        <time>2020-09-05T09:34:22.47Z</time>
      </trkpt>
      <trkpt lat="44.97077" lon="5.47561">
        <ele>1304</ele>
        <time>2020-09-05T09:35:23.57Z</time>
      </trkpt>
      <trkpt lat="44.97108" lon="5.47592">
        <ele>1306</ele>
        <time>2020-09-05T09:36:09.31Z</time>
      </trkpt>
      <trkpt lat="44.97209" lon="5.47659">
        <ele>1311</ele>
        <time>2020-09-05T09:38:19.75Z</time>
      </trkpt>
      <trkpt lat="44.97291" lon="5.4768">
        <ele>1311</ele>
        <time>2020-09-05T09:39:52.36Z</time>
      </trkpt>
      <trkpt lat="44.97404" lon="5.47687">
        <ele>1311</ele>
        <time>2020-09-05T09:42:02.63Z</time>
      </trkpt>
      <trkpt lat="44.97439" lon="5.47671">
        <ele>1314</ele>
        <time>2020-09-05T09:42:49.78Z</time>
      </trkpt>
      <trkpt lat="44.97489" lon="5.47683">
        <ele>1319</ele>
        <time>2020-09-05T09:43:59.91Z</time>
      </trkpt>
      <trkpt lat="44.97565" lon="5.4767">
        <ele>1328</ele>
        <time>2020-09-05T09:45:41.34Z</time>
      </trkpt>
      <trkpt lat="44.97608" lon="5.47672">
        <ele>1331</ele>
        <time>2020-09-05T09:46:33.85Z</time>
      </trkpt>
      <trkpt lat="44.97644" lon="5.47659">
        <ele>1332</ele>
        <time>2020-09-05T09:47:16.63Z</time>
      </trkpt>
      <trkpt lat="44.97651" lon="5.47654">
        <ele>1333</ele>
        <time>2020-09-05T09:47:25.03Z</time>
      </trkpt>
      <trkpt lat="44.97592" lon="5.47704">
        <ele>1333</ele>
        <time>2020-09-05T09:48:41.24Z</time>
      </trkpt>
      <trkpt lat="44.97562" lon="5.47721">
        <ele>1333</ele>
        <time>2020-09-05T09:49:17.97Z</time>
      </trkpt>
      <trkpt lat="44.97506" lon="5.47806">
        <ele>1335</ele>
        <time>2020-09-05T09:50:53.71Z</time>
      </trkpt>
      <trkpt lat="44.97503" lon="5.47915">
        <ele>1337</ele>
        <time>2020-09-05T09:52:23.90Z</time>
      </trkpt>
      <trkpt lat="44.97514" lon="5.47937">
        <ele>1337</ele>
        <time>2020-09-05T09:52:46.22Z</time>
      </trkpt>
      <trkpt lat="44.9752" lon="5.47939">
        <ele>1338</ele>
        <time>2020-09-05T09:52:53.35Z</time>
      </trkpt>
      <trkpt lat="44.97487" lon="5.47964">
        <ele>1338</ele>
        <time>2020-09-05T09:53:34.93Z</time>
      </trkpt>
      <trkpt lat="44.97394" lon="5.48015">
        <ele>1337</ele>
        <time>2020-09-05T09:55:25.96Z</time>
      </trkpt>
      <trkpt lat="44.97356" lon="5.48031">
        <ele>1336</ele>
        <time>2020-09-05T09:56:09.82Z</time>
      </trkpt>
      <trkpt lat="44.97253" lon="5.48108">
        <ele>1337</ele>
        <time>2020-09-05T09:58:23.43Z</time>
      </trkpt>
      <trkpt lat="44.97202" lon="5.481">
        <ele>1339</ele>
        <time>2020-09-05T09:59:24.05Z</time>
      </trkpt>
      <trkpt lat="44.97188" lon="5.4809">
        <ele>1340</ele>
        <time>2020-09-05T09:59:43.29Z</time>
      </trkpt>
      <trkpt lat="44.97173" lon="5.48087">
        <ele>1340</ele>
        <time>2020-09-05T10:00:01.58Z</time>
      </trkpt>
      <trkpt lat="44.97169" lon="5.48114">
        <ele>1341</ele>
        <time>2020-09-05T10:00:24.59Z</time>
      </trkpt>
      <trkpt lat="44.97173" lon="5.48156">
        <ele>1343</ele>
        <time>2020-09-05T10:01:01.72Z</time>
      </trkpt>
      <trkpt lat="44.97101" lon="5.48185">
        <ele>1347</ele>
        <time>2020-09-05T10:02:33.44Z</time>
      </trkpt>
      <trkpt lat="44.97057" lon="5.48195">
        <ele>1350</ele>
        <time>2020-09-05T10:03:28.43Z</time>
      </trkpt>
      <trkpt lat="44.97041" lon="5.48181">
        <ele>1351</ele>
        <time>2020-09-05T10:03:51.18Z</time>
      </trkpt>
      <trkpt lat="44.96998" lon="5.48183">
        <ele>1353</ele>
        <time>2020-09-05T10:04:42.99Z</time>
      </trkpt>
      <trkpt lat="44.96979" lon="5.48169">
        <ele>1354</ele>
        <time>2020-09-05T10:05:08.57Z</time>
      </trkpt>
      <trkpt lat="44.96957" lon="5.48165">
        <ele>1355</ele>
        <time>2020-09-05T10:05:35.22Z</time>
      </trkpt>
      <trkpt lat="44.96943" lon="5.48146">
        <ele>1356</ele>
        <time>2020-09-05T10:05:58.80Z</time>
      </trkpt>
      <trkpt lat="44.96907" lon="5.48147">
        <ele>1357</ele>
        <time>2020-09-05T10:06:40.50Z</time>
      </trkpt>
      <trkpt lat="44.9689" lon="5.48179">
        <ele>1358</ele>
        <time>2020-09-05T10:07:15.06Z</time>
      </trkpt>
      <trkpt lat="44.96887" lon="5.48251">
        <ele>1361</ele>
        <time>2020-09-05T10:08:17.08Z</time>
      </trkpt>
      <trkpt lat="44.96896" lon="5.48292">
        <ele>1362</ele>
        <time>2020-09-05T10:08:53.93Z</time>
      </trkpt>
      <trkpt lat="44.96886" lon="5.48337">
        <ele>1364</ele>
        <time>2020-09-05T10:09:34.19Z</time>
      </trkpt>
      <trkpt lat="44.96887" lon="5.48353">
        <ele>1365</ele>
        <time>2020-09-05T10:09:48.13Z</time>
      </trkpt>
      <trkpt lat="44.96897" lon="5.48373">
        <ele>1365</ele>
        <time>2020-09-05T10:10:08.38Z</time>
      </trkpt>
      <trkpt lat="44.96904" lon="5.48408">
        <ele>1366</ele>
        <time>2020-09-05T10:10:39.81Z</time>
      </trkpt>
      <trkpt lat="44.96926" lon="5.48461">
        <ele>1368</ele>
        <time>2020-09-05T10:11:30.40Z</time>
      </trkpt>
      <trkpt lat="44.96922" lon="5.48496">
        <ele>1368</ele>
        <time>2020-09-05T10:11:59.08Z</time>
      </trkpt>
      <trkpt lat="44.96892" lon="5.48513">
        <ele>1369</ele>
        <time>2020-09-05T10:12:37.54Z</time>
      </trkpt>
      <trkpt lat="44.9685" lon="5.48562">
        <ele>1371</ele>
        <time>2020-09-05T10:13:44.16Z</time>
      </trkpt>
      <trkpt lat="44.96824" lon="5.48659">
        <ele>1376</ele>
        <time>2020-09-05T10:15:16.47Z</time>
      </trkpt>
      <trkpt lat="44.96809" lon="5.48684">
        <ele>1378</ele>
        <time>2020-09-05T10:15:47.86Z</time>
      </trkpt>
      <trkpt lat="44.96786" lon="5.48748">
        <ele>1384</ele>
        <time>2020-09-05T10:16:57.93Z</time>
      </trkpt>
      <trkpt lat="44.96778" lon="5.48858">
        <ele>1392</ele>
        <time>2020-09-05T10:18:39.41Z</time>
      </trkpt>
      <trkpt lat="44.9679" lon="5.48879">
        <ele>1394</ele>
        <time>2020-09-05T10:19:03.15Z</time>
      </trkpt>
      <trkpt lat="44.96794" lon="5.48912">
        <ele>1395</ele>
        <time>2020-09-05T10:19:31.11Z</time>
      </trkpt>
      <trkpt lat="44.9679" lon="5.48982">
        <ele>1396</ele>
        <time>2020-09-05T10:20:26.90Z</time>
      </trkpt>
      <trkpt lat="44.96751" lon="5.49025">
        <ele>1395</ele>
        <time>2020-09-05T10:21:21.73Z</time>
      </trkpt>
      <trkpt lat="44.9674" lon="5.49062">
        <ele>1394</ele>
        <time>2020-09-05T10:21:53.80Z</time>
      </trkpt>
      <trkpt lat="44.96719" lon="5.49102">
        <ele>1393</ele>
        <time>2020-09-05T10:22:32.98Z</time>
      </trkpt>
      <trkpt lat="44.96701" lon="5.49121">
        <ele>1393</ele>
        <time>2020-09-05T10:22:57.48Z</time>
      </trkpt>
      <trkpt lat="44.96677" lon="5.492">
        <ele>1392</ele>
        <time>2020-09-05T10:24:05.52Z</time>
      </trkpt>
      <trkpt lat="44.9666" lon="5.49223">
        <ele>1392</ele>
        <time>2020-09-05T10:24:31.67Z</time>
      </trkpt>
      <trkpt lat="44.96651" lon="5.49252">
        <ele>1392</ele>
        <time>2020-09-05T10:24:56.75Z</time>
      </trkpt>
      <trkpt lat="44.96634" lon="5.49274">
        <ele>1392</ele>
        <time>2020-09-05T10:25:23.90Z</time>
      </trkpt>
      <trkpt lat="44.96613" lon="5.49275">
        <ele>1393</ele>
        <time>2020-09-05T10:25:48.15Z</time>
      </trkpt>
      <trkpt lat="44.966" lon="5.49297">
        <ele>1394</ele>
        <time>2020-09-05T10:26:12.76Z</time>
      </trkpt>
      <trkpt lat="44.96613" lon="5.49275">
        <ele>1395</ele>
        <time>2020-09-05T10:26:37.55Z</time>
      </trkpt>
      <trkpt lat="44.96596" lon="5.49273">
        <ele>1396</ele>
        <time>2020-09-05T10:26:58.14Z</time>
      </trkpt>
      <trkpt lat="44.9659" lon="5.49255">
        <ele>1397</ele>
        <time>2020-09-05T10:27:16.21Z</time>
      </trkpt>
      <trkpt lat="44.96573" lon="5.49246">
        <ele>1398</ele>
        <time>2020-09-05T10:27:38.24Z</time>
      </trkpt>
      <trkpt lat="44.96529" lon="5.49233">
        <ele>1402</ele>
        <time>2020-09-05T10:28:36.15Z</time>
      </trkpt>
      <trkpt lat="44.96479" lon="5.49238">
        <ele>1406</ele>
        <time>2020-09-05T10:29:41.30Z</time>
      </trkpt>
      <trkpt lat="44.96376" lon="5.49295">
        <ele>1416</ele>
        <time>2020-09-05T10:32:05.10Z</time>
      </trkpt>
      <trkpt lat="44.96356" lon="5.49296">
        <ele>1418</ele>
        <time>2020-09-05T10:32:31.94Z</time>
      </trkpt>
      <trkpt lat="44.9629" lon="5.49346">
        <ele>1426</ele>
        <time>2020-09-05T10:34:12.10Z</time>
      </trkpt>
      <trkpt lat="44.96238" lon="5.49356">
        <ele>1431</ele>
        <time>2020-09-05T10:35:21.11Z</time>
      </trkpt>
      <trkpt lat="44.96212" lon="5.49394">
        <ele>1435</ele>
        <time>2020-09-05T10:36:12.50Z</time>
      </trkpt>
      <trkpt lat="44.96193" lon="5.49421">
        <ele>1438</ele>
        <time>2020-09-05T10:36:48.84Z</time>
      </trkpt>
      <trkpt lat="44.96159" lon="5.49506">
        <ele>1445</ele>
        <time>2020-09-05T10:38:19.70Z</time>
      </trkpt>
      <trkpt lat="44.96145" lon="5.4953">
        <ele>1447</ele>
        <time>2020-09-05T10:38:48.17Z</time>
      </trkpt>
      <trkpt lat="44.96137" lon="5.4957">
        <ele>1449</ele>
        <time>2020-09-05T10:39:26.35Z</time>
      </trkpt>
      <trkpt lat="44.96126" lon="5.49583">
        <ele>1451</ele>
        <time>2020-09-05T10:39:44.07Z</time>
      </trkpt>
      <trkpt lat="44.96128" lon="5.49615">
        <ele>1453</ele>
        <time>2020-09-05T10:40:13.69Z</time>
      </trkpt>
      <trkpt lat="44.96113" lon="5.49625">
        <ele>1454</ele>
        <time>2020-09-05T10:40:35.23Z</time>
      </trkpt>
      <trkpt lat="44.96107" lon="5.49656">
        <ele>1457</ele>
        <time>2020-09-05T10:41:07.42Z</time>
      </trkpt>
      <trkpt lat="44.96094" lon="5.49674">
        <ele>1459</ele>
        <time>2020-09-05T10:41:32.90Z</time>
      </trkpt>
      <trkpt lat="44.96081" lon="5.4971">
        <ele>1462</ele>
        <time>2020-09-05T10:42:19.08Z</time>
      </trkpt>
      <trkpt lat="44.96084" lon="5.49719">
        <ele>1463</ele>
        <time>2020-09-05T10:42:30.77Z</time>
      </trkpt>
      <trkpt lat="44.96039" lon="5.49796">
        <ele>1475</ele>
        <time>2020-09-05T10:44:31.76Z</time>
      </trkpt>
      <trkpt lat="44.95954" lon="5.49857">
        <ele>1491</ele>
        <time>2020-09-05T10:47:15.68Z</time>
      </trkpt>
      <trkpt lat="44.95916" lon="5.49887">
        <ele>1499</ele>
        <time>2020-09-05T10:48:31.21Z</time>
      </trkpt>
      <trkpt lat="44.95865" lon="5.49916">
        <ele>1508</ele>
        <time>2020-09-05T10:50:01.52Z</time>
      </trkpt>
      <trkpt lat="44.95847" lon="5.49945">
        <ele>1512</ele>
        <time>2020-09-05T10:50:42.12Z</time>
      </trkpt>
      <trkpt lat="44.95814" lon="5.49963">
        <ele>1516</ele>
        <time>2020-09-05T10:51:30.36Z</time>
      </trkpt>
      <trkpt lat="44.9579" lon="5.49991">
        <ele>1519</ele>
        <time>2020-09-05T10:52:09.79Z</time>
      </trkpt>
      <trkpt lat="44.95765" lon="5.5">
        <ele>1521</ele>
        <time>2020-09-05T10:52:40.85Z</time>
      </trkpt>
      <trkpt lat="44.95756" lon="5.50013">
        <ele>1521</ele>
        <time>2020-09-05T10:52:55.94Z</time>
      </trkpt>
      <trkpt lat="44.95699" lon="5.50039">
        <ele>1522</ele>
        <time>2020-09-05T10:54:02.91Z</time>
      </trkpt>
      <trkpt lat="44.95697" lon="5.50009">
        <ele>1522</ele>
        <time>2020-09-05T10:54:27.26Z</time>
      </trkpt>
      <trkpt lat="44.95703" lon="5.49991">
        <ele>1521</ele>
        <time>2020-09-05T10:54:42.47Z</time>
      </trkpt>
      <trkpt lat="44.95699" lon="5.49924">
        <ele>1518</ele>
        <time>2020-09-05T10:55:37.83Z</time>
      </trkpt>
      <trkpt lat="44.95678" lon="5.49829">
        <ele>1510</ele>
        <time>2020-09-05T10:57:03.14Z</time>
      </trkpt>
      <trkpt lat="44.95672" lon="5.49771">
        <ele>1505</ele>
        <time>2020-09-05T10:57:53.44Z</time>
      </trkpt>
      <trkpt lat="44.95696" lon="5.49739">
        <ele>1501</ele>
        <time>2020-09-05T10:58:32.82Z</time>
      </trkpt>
      <trkpt lat="44.95706" lon="5.49686">
        <ele>1498</ele>
        <time>2020-09-05T10:59:17.02Z</time>
      </trkpt>
      <trkpt lat="44.95715" lon="5.49671">
        <ele>1497</ele>
        <time>2020-09-05T10:59:31.92Z</time>
      </trkpt>
      <trkpt lat="44.95728" lon="5.49626">
        <ele>1495</ele>
        <time>2020-09-05T11:00:10.96Z</time>
      </trkpt>
      <trkpt lat="44.95768" lon="5.49526">
        <ele>1492</ele>
        <time>2020-09-05T11:01:40.83Z</time>
      </trkpt>
      <trkpt lat="44.95773" lon="5.49495">
        <ele>1491</ele>
        <time>2020-09-05T11:02:06.40Z</time>
      </trkpt>
      <trkpt lat="44.95785" lon="5.49475">
        <ele>1490</ele>
        <time>2020-09-05T11:02:27.21Z</time>
      </trkpt>
      <trkpt lat="44.9579" lon="5.49424">
        <ele>1488</ele>
        <time>2020-09-05T11:03:07.83Z</time>
      </trkpt>
      <trkpt lat="44.95805" lon="5.49384">
        <ele>1487</ele>
        <time>2020-09-05T11:03:43.68Z</time>
      </trkpt>
      <trkpt lat="44.95804" lon="5.49368">
        <ele>1486</ele>
        <time>2020-09-05T11:03:56.42Z</time>
      </trkpt>
      <trkpt lat="44.95813" lon="5.49355">
        <ele>1485</ele>
        <time>2020-09-05T11:04:10.35Z</time>
      </trkpt>
      <trkpt lat="44.95825" lon="5.49313">
        <ele>1483</ele>
        <time>2020-09-05T11:04:45.79Z</time>
      </trkpt>
      <trkpt lat="44.95821" lon="5.49296">
        <ele>1483</ele>
        <time>2020-09-05T11:05:00.34Z</time>
      </trkpt>
      <trkpt lat="44.95841" lon="5.49238">
        <ele>1481</ele>
        <time>2020-09-05T11:05:51.03Z</time>
      </trkpt>
      <trkpt lat="44.9585" lon="5.49223">
        <ele>1480</ele>
        <time>2020-09-05T11:06:06.34Z</time>
      </trkpt>
      <trkpt lat="44.95852" lon="5.49206">
        <ele>1480</ele>
        <time>2020-09-05T11:06:20.41Z</time>
      </trkpt>
      <trkpt lat="44.95847" lon="5.49187">
        <ele>1479</ele>
        <time>2020-09-05T11:06:35.65Z</time>
      </trkpt>
      <trkpt lat="44.95868" lon="5.49118">
        <ele>1478</ele>
        <time>2020-09-05T11:07:35.07Z</time>
      </trkpt>
      <trkpt lat="44.95901" lon="5.49045">
        <ele>1475</ele>
        <time>2020-09-05T11:08:43.36Z</time>
      </trkpt>
      <trkpt lat="44.95908" lon="5.48992">
        <ele>1473</ele>
        <time>2020-09-05T11:09:26.06Z</time>
      </trkpt>
      <trkpt lat="44.9592" lon="5.48982">
        <ele>1473</ele>
        <time>2020-09-05T11:09:42.10Z</time>
      </trkpt>
      <trkpt lat="44.95954" lon="5.48893">
        <ele>1467</ele>
        <time>2020-09-05T11:11:06.91Z</time>
      </trkpt>
      <trkpt lat="44.95962" lon="5.48893">
        <ele>1466</ele>
        <time>2020-09-05T11:11:16.59Z</time>
      </trkpt>
      <trkpt lat="44.96019" lon="5.48763">
        <ele>1454</ele>
        <time>2020-09-05T11:13:26.56Z</time>
      </trkpt>
      <trkpt lat="44.96021" lon="5.48742">
        <ele>1452</ele>
        <time>2020-09-05T11:13:44.80Z</time>
      </trkpt>
      <trkpt lat="44.96058" lon="5.4868">
        <ele>1445</ele>
        <time>2020-09-05T11:14:55.02Z</time>
      </trkpt>
      <trkpt lat="44.9607" lon="5.4867">
        <ele>1443</ele>
        <time>2020-09-05T11:15:11.52Z</time>
      </trkpt>
      <trkpt lat="44.96116" lon="5.4866">
        <ele>1437</ele>
        <time>2020-09-05T11:16:07.39Z</time>
      </trkpt>
      <trkpt lat="44.96138" lon="5.48633">
        <ele>1434</ele>
        <time>2020-09-05T11:16:42.30Z</time>
      </trkpt>
      <trkpt lat="44.96145" lon="5.48614">
        <ele>1433</ele>
        <time>2020-09-05T11:16:59.74Z</time>
      </trkpt>
      <trkpt lat="44.96182" lon="5.48556">
        <ele>1428</ele>
        <time>2020-09-05T11:18:03.68Z</time>
      </trkpt>
      <trkpt lat="44.96205" lon="5.48489">
        <ele>1423</ele>
        <time>2020-09-05T11:19:07.17Z</time>
      </trkpt>
      <trkpt lat="44.96277" lon="5.48425">
        <ele>1413</ele>
        <time>2020-09-05T11:20:52.24Z</time>
      </trkpt>
      <trkpt lat="44.9632" lon="5.48369">
        <ele>1403</ele>
        <time>2020-09-05T11:22:11.36Z</time>
      </trkpt>
      <trkpt lat="44.96339" lon="5.48361">
        <ele>1400</ele>
        <time>2020-09-05T11:22:37.78Z</time>
      </trkpt>
      <trkpt lat="44.96361" lon="5.48317">
        <ele>1393</ele>
        <time>2020-09-05T11:23:32.45Z</time>
      </trkpt>
      <trkpt lat="44.96397" lon="5.4829">
        <ele>1385</ele>
        <time>2020-09-05T11:24:31.80Z</time>
      </trkpt>
      <trkpt lat="44.96426" lon="5.48251">
        <ele>1377</ele>
        <time>2020-09-05T11:25:29.54Z</time>
      </trkpt>
      <trkpt lat="44.96451" lon="5.48188">
        <ele>1367</ele>
        <time>2020-09-05T11:26:40.67Z</time>
      </trkpt>
      <trkpt lat="44.96471" lon="5.48164">
        <ele>1363</ele>
        <time>2020-09-05T11:27:15.95Z</time>
      </trkpt>
      <trkpt lat="44.96536" lon="5.48112">
        <ele>1350</ele>
        <time>2020-09-05T11:28:52.35Z</time>
      </trkpt>
      <trkpt lat="44.96561" lon="5.4808">
        <ele>1346</ele>
        <time>2020-09-05T11:29:33.56Z</time>
      </trkpt>
      <trkpt lat="44.96582" lon="5.48031">
        <ele>1340</ele>
        <time>2020-09-05T11:30:22.90Z</time>
      </trkpt>
      <trkpt lat="44.9651" lon="5.47962">
        <ele>1331</ele>
        <time>2020-09-05T11:32:02.84Z</time>
      </trkpt>
      <trkpt lat="44.96401" lon="5.47831">
        <ele>1322</ele>
        <time>2020-09-05T11:34:41.89Z</time>
      </trkpt>
      <trkpt lat="44.96386" lon="5.47794">
        <ele>1322</ele>
        <time>2020-09-05T11:35:15.36Z</time>
      </trkpt>
      <trkpt lat="44.96365" lon="5.47768">
        <ele>1322</ele>
        <time>2020-09-05T11:35:48.34Z</time>
      </trkpt>
      <trkpt lat="44.96347" lon="5.47758">
        <ele>1323</ele>
        <time>2020-09-05T11:36:11.08Z</time>
      </trkpt>
      <trkpt lat="44.96319" lon="5.47697">
        <ele>1325</ele>
        <time>2020-09-05T11:37:13.36Z</time>
      </trkpt>
      <trkpt lat="44.96308" lon="5.47691">
        <ele>1326</ele>
        <time>2020-09-05T11:37:27.64Z</time>
      </trkpt>
      <trkpt lat="44.96278" lon="5.47691">
        <ele>1328</ele>
        <time>2020-09-05T11:38:05.76Z</time>
      </trkpt>
      <trkpt lat="44.96233" lon="5.4765">
        <ele>1332</ele>
        <time>2020-09-05T11:39:12.99Z</time>
      </trkpt>
      <trkpt lat="44.9622" lon="5.47652">
        <ele>1333</ele>
        <time>2020-09-05T11:39:29.20Z</time>
      </trkpt>
      <trkpt lat="44.962" lon="5.47649">
        <ele>1334</ele>
        <time>2020-09-05T11:39:53.23Z</time>
      </trkpt>
      <trkpt lat="44.9615" lon="5.47579">
        <ele>1338</ele>
        <time>2020-09-05T11:41:20.65Z</time>
      </trkpt>
      <trkpt lat="44.96111" lon="5.4757">
        <ele>1341</ele>
        <time>2020-09-05T11:42:09.17Z</time>
      </trkpt>
      <trkpt lat="44.96082" lon="5.47534">
        <ele>1343</ele>
        <time>2020-09-05T11:42:56.78Z</time>
      </trkpt>
      <trkpt lat="44.96072" lon="5.4753">
        <ele>1344</ele>
        <time>2020-09-05T11:43:08.61Z</time>
      </trkpt>
      <trkpt lat="44.96031" lon="5.47537">
        <ele>1346</ele>
        <time>2020-09-05T11:43:59.93Z</time>
      </trkpt>
      <trkpt lat="44.96013" lon="5.47533">
        <ele>1347</ele>
        <time>2020-09-05T11:44:21.99Z</time>
      </trkpt>
      <trkpt lat="44.95966" lon="5.47545">
        <ele>1350</ele>
        <time>2020-09-05T11:45:21Z</time>
      </trkpt>
      <trkpt lat="44.95904" lon="5.47554">
        <ele>1354</ele>
        <time>2020-09-05T11:46:38.92Z</time>
      </trkpt>
      <trkpt lat="44.9589" lon="5.47564">
        <ele>1355</ele>
        <time>2020-09-05T11:46:58.47Z</time>
      </trkpt>
      <trkpt lat="44.95857" lon="5.4757">
        <ele>1358</ele>
        <time>2020-09-05T11:47:41.30Z</time>
      </trkpt>
      <trkpt lat="44.95816" lon="5.47607">
        <ele>1361</ele>
        <time>2020-09-05T11:48:41.53Z</time>
      </trkpt>
      <trkpt lat="44.95782" lon="5.47609">
        <ele>1363</ele>
        <time>2020-09-05T11:49:23.09Z</time>
      </trkpt>
      <trkpt lat="44.95739" lon="5.4762">
        <ele>1366</ele>
        <time>2020-09-05T11:50:17.91Z</time>
      </trkpt>
      <trkpt lat="44.95714" lon="5.47607">
        <ele>1368</ele>
        <time>2020-09-05T11:50:51.54Z</time>
      </trkpt>
      <trkpt lat="44.95674" lon="5.47635">
        <ele>1371</ele>
        <time>2020-09-05T11:51:46.29Z</time>
      </trkpt>
      <trkpt lat="44.95664" lon="5.4765">
        <ele>1372</ele>
        <time>2020-09-05T11:52:03.73Z</time>
      </trkpt>
      <trkpt lat="44.95638" lon="5.47662">
        <ele>1373</ele>
        <time>2020-09-05T11:52:37.14Z</time>
      </trkpt>
      <trkpt lat="44.95602" lon="5.47695">
        <ele>1376</ele>
        <time>2020-09-05T11:53:30.18Z</time>
      </trkpt>
      <trkpt lat="44.95589" lon="5.477">
        <ele>1376</ele>
        <time>2020-09-05T11:53:47.53Z</time>
      </trkpt>
      <trkpt lat="44.95563" lon="5.47694">
        <ele>1378</ele>
        <time>2020-09-05T11:54:18.80Z</time>
      </trkpt>
      <trkpt lat="44.95506" lon="5.47648">
        <ele>1381</ele>
        <time>2020-09-05T11:55:37.67Z</time>
      </trkpt>
      <trkpt lat="44.95439" lon="5.47645">
        <ele>1384</ele>
        <time>2020-09-05T11:56:58.61Z</time>
      </trkpt>
      <trkpt lat="44.95397" lon="5.47651">
        <ele>1386</ele>
        <time>2020-09-05T11:57:50.15Z</time>
      </trkpt>
      <trkpt lat="44.95338" lon="5.47642">
        <ele>1389</ele>
        <time>2020-09-05T11:59:00.16Z</time>
      </trkpt>
      <trkpt lat="44.95262" lon="5.47673">
        <ele>1391</ele>
        <time>2020-09-05T12:00:30.63Z</time>
      </trkpt>
      <trkpt lat="44.95237" lon="5.4769">
        <ele>1391</ele>
        <time>2020-09-05T12:01:01.64Z</time>
      </trkpt>
      <trkpt lat="44.95209" lon="5.47697">
        <ele>1391</ele>
        <time>2020-09-05T12:01:32.81Z</time>
      </trkpt>
      <trkpt lat="44.95161" lon="5.4767">
        <ele>1389</ele>
        <time>2020-09-05T12:02:31.01Z</time>
      </trkpt>
      <trkpt lat="44.9511" lon="5.47604">
        <ele>1388</ele>
        <time>2020-09-05T12:03:47.15Z</time>
      </trkpt>
      <trkpt lat="44.95092" lon="5.4756">
        <ele>1388</ele>
        <time>2020-09-05T12:04:28.78Z</time>
      </trkpt>
      <trkpt lat="44.95056" lon="5.47558">
        <ele>1389</ele>
        <time>2020-09-05T12:05:12.23Z</time>
      </trkpt>
      <trkpt lat="44.95004" lon="5.47511">
        <ele>1394</ele>
        <time>2020-09-05T12:06:34.01Z</time>
      </trkpt>
      <trkpt lat="44.95003" lon="5.47492">
        <ele>1395</ele>
        <time>2020-09-05T12:06:51.76Z</time>
      </trkpt>
      <trkpt lat="44.95029" lon="5.47419">
        <ele>1402</ele>
        <time>2020-09-05T12:08:17.52Z</time>
      </trkpt>
      <trkpt lat="44.95012" lon="5.47352">
        <ele>1409</ele>
        <time>2020-09-05T12:09:30.59Z</time>
      </trkpt>
      <trkpt lat="44.95042" lon="5.47272">
        <ele>1416</ele>
        <time>2020-09-05T12:10:57.02Z</time>
      </trkpt>
      <trkpt lat="44.95" lon="5.47177">
        <ele>1424</ele>
        <time>2020-09-05T12:12:38.48Z</time>
      </trkpt>
      <trkpt lat="44.95039" lon="5.47058">
        <ele>1430</ele>
        <time>2020-09-05T12:14:24.85Z</time>
      </trkpt>
      <trkpt lat="44.95065" lon="5.46868">
        <ele>1428</ele>
        <time>2020-09-05T12:16:57.44Z</time>
      </trkpt>
      <trkpt lat="44.95089" lon="5.46839">
        <ele>1425</ele>
        <time>2020-09-05T12:17:33.66Z</time>
      </trkpt>
      <trkpt lat="44.95107" lon="5.46773">
        <ele>1421</ele>
        <time>2020-09-05T12:18:31.96Z</time>
      </trkpt>
      <trkpt lat="44.95212" lon="5.46729">
        <ele>1411</ele>
        <time>2020-09-05T12:20:37.35Z</time>
      </trkpt>
      <trkpt lat="44.95246" lon="5.46643">
        <ele>1407</ele>
        <time>2020-09-05T12:21:55.03Z</time>
      </trkpt>
      <trkpt lat="44.95267" lon="5.4661">
        <ele>1406</ele>
        <time>2020-09-05T12:22:29.70Z</time>
      </trkpt>
      <trkpt lat="44.95288" lon="5.46599">
        <ele>1406</ele>
        <time>2020-09-05T12:22:55.83Z</time>
      </trkpt>
      <trkpt lat="44.95317" lon="5.46601">
        <ele>1407</ele>
        <time>2020-09-05T12:23:30.73Z</time>
      </trkpt>
      <trkpt lat="44.95345" lon="5.46611">
        <ele>1409</ele>
        <time>2020-09-05T12:24:06.16Z</time>
      </trkpt>
      <trkpt lat="44.9539" lon="5.46651">
        <ele>1411</ele>
        <time>2020-09-05T12:25:06Z</time>
      </trkpt>
      <trkpt lat="44.954" lon="5.46598">
        <ele>1410</ele>
        <time>2020-09-05T12:25:52.59Z</time>
      </trkpt>
      <trkpt lat="44.95401" lon="5.46514">
        <ele>1400</ele>
        <time>2020-09-05T12:27:27.81Z</time>
      </trkpt>
      <trkpt lat="44.95424" lon="5.46475">
        <ele>1388</ele>
        <time>2020-09-05T12:28:54.14Z</time>
      </trkpt>
      <trkpt lat="44.95466" lon="5.4644">
        <ele>1368</ele>
        <time>2020-09-05T12:30:43.13Z</time>
      </trkpt>
      <trkpt lat="44.95478" lon="5.46417">
        <ele>1359</ele>
        <time>2020-09-05T12:31:26.72Z</time>
      </trkpt>
      <trkpt lat="44.95562" lon="5.46292">
        <ele>1322</ele>
        <time>2020-09-05T12:34:45.93Z</time>
      </trkpt>
      <trkpt lat="44.95581" lon="5.46197">
        <ele>1313</ele>
        <time>2020-09-05T12:36:15.47Z</time>
      </trkpt>
      <trkpt lat="44.95547" lon="5.46068">
        <ele>1296</ele>
        <time>2020-09-05T12:38:15.07Z</time>
      </trkpt>
      <trkpt lat="44.95493" lon="5.45907">
        <ele>1285</ele>
        <time>2020-09-05T12:40:41.30Z</time>
      </trkpt>
      <trkpt lat="44.95503" lon="5.45926">
        <ele>1290</ele>
        <time>2020-09-05T12:40:59.95Z</time>
      </trkpt>
    </trkseg>
  </trk>
</gpx>